sensor_id;sensor_type;location;lat;lon;timestamp;P1;durP1;ratioP1;P2;durP2;ratioP2
40591;SDS011;26301;42.832;23.918;2023-07-29T00:01:40;3.97;;;2.65;;
40591;SDS011;26301;42.832;23.918;2023-07-29T00:04:06;3.88;;;2.58;;
40591;SDS011;26301;42.832;23.918;2023-07-29T00:06:33;3.85;;;3.03;;
40591;SDS011;26301;42.832;23.918;2023-07-29T00:08:59;7.20;;;2.80;;
40591;SDS011;26301;42.832;23.918;2023-07-29T00:11:26;5.45;;;2.70;;
40591;SDS011;26301;42.832;23.918;2023-07-29T00:13:52;3.50;;;2.65;;
40591;SDS011;26301;42.832;23.918;2023-07-29T00:16:18;3.60;;;2.78;;
40591;SDS011;26301;42.832;23.918;2023-07-29T00:18:47;4.55;;;2.80;;
40591;SDS011;26301;42.832;23.918;2023-07-29T00:21:12;5.70;;;3.00;;
40591;SDS011;26301;42.832;23.918;2023-07-29T00:23:38;3.28;;;2.33;;
40591;SDS011;26301;42.832;23.918;2023-07-29T00:26:03;4.93;;;2.40;;
40591;SDS011;26301;42.832;23.918;2023-07-29T00:28:29;3.90;;;2.78;;
40591;SDS011;26301;42.832;23.918;2023-07-29T00:30:54;3.80;;;2.72;;
40591;SDS011;26301;42.832;23.918;2023-07-29T00:33:20;4.03;;;2.70;;
40591;SDS011;26301;42.832;23.918;2023-07-29T00:35:46;3.63;;;2.80;;
40591;SDS011;26301;42.832;23.918;2023-07-29T00:38:11;3.83;;;3.17;;
40591;SDS011;26301;42.832;23.918;2023-07-29T00:40:37;5.60;;;2.90;;
40591;SDS011;26301;42.832;23.918;2023-07-29T00:43:02;2.80;;;2.25;;
40591;SDS011;26301;42.832;23.918;2023-07-29T00:45:28;3.90;;;3.00;;
40591;SDS011;26301;42.832;23.918;2023-07-29T00:47:55;4.15;;;2.85;;
40591;SDS011;26301;42.832;23.918;2023-07-29T00:50:21;3.72;;;2.85;;
40591;SDS011;26301;42.832;23.918;2023-07-29T00:52:48;3.28;;;2.90;;
40591;SDS011;26301;42.832;23.918;2023-07-29T00:55:14;3.33;;;2.85;;
40591;SDS011;26301;42.832;23.918;2023-07-29T00:57:40;3.28;;;2.78;;
40591;SDS011;26301;42.832;23.918;2023-07-29T01:00:07;4.45;;;2.95;;
40591;SDS011;26301;42.832;23.918;2023-07-29T01:02:34;4.55;;;2.65;;
40591;SDS011;26301;42.832;23.918;2023-07-29T01:07:52;3.55;;;2.67;;
40591;SDS011;26301;42.832;23.918;2023-07-29T01:16:30;4.43;;;2.92;;
40591;SDS011;26301;42.832;23.918;2023-07-29T01:18:59;8.52;;;3.30;;
40591;SDS011;26301;42.832;23.918;2023-07-29T01:21:31;4.40;;;2.35;;
40591;SDS011;26301;42.832;23.918;2023-07-29T01:24:00;4.43;;;2.90;;
40591;SDS011;26301;42.832;23.918;2023-07-29T01:26:25;3.35;;;2.78;;
40591;SDS011;26301;42.832;23.918;2023-07-29T01:28:52;3.90;;;2.70;;
40591;SDS011;26301;42.832;23.918;2023-07-29T01:31:23;4.80;;;2.92;;
40591;SDS011;26301;42.832;23.918;2023-07-29T01:33:59;3.15;;;2.65;;
40591;SDS011;26301;42.832;23.918;2023-07-29T01:36:35;4.03;;;2.80;;
40591;SDS011;26301;42.832;23.918;2023-07-29T01:39:05;4.70;;;2.80;;
40591;SDS011;26301;42.832;23.918;2023-07-29T01:41:32;3.80;;;2.60;;
40591;SDS011;26301;42.832;23.918;2023-07-29T01:43:59;3.60;;;3.00;;
40591;SDS011;26301;42.832;23.918;2023-07-29T01:46:25;4.53;;;2.78;;
40591;SDS011;26301;42.832;23.918;2023-07-29T01:48:51;3.45;;;2.70;;
40591;SDS011;26301;42.832;23.918;2023-07-29T01:51:16;4.10;;;2.60;;
40591;SDS011;26301;42.832;23.918;2023-07-29T01:53:42;4.03;;;3.08;;
40591;SDS011;26301;42.832;23.918;2023-07-29T01:56:07;4.32;;;3.10;;
40591;SDS011;26301;42.832;23.918;2023-07-29T01:58:33;3.67;;;2.80;;
40591;SDS011;26301;42.832;23.918;2023-07-29T02:00:58;3.80;;;2.92;;
40591;SDS011;26301;42.832;23.918;2023-07-29T02:03:24;3.60;;;2.95;;
40591;SDS011;26301;42.832;23.918;2023-07-29T02:05:49;3.40;;;2.58;;
40591;SDS011;26301;42.832;23.918;2023-07-29T02:08:15;4.68;;;3.03;;
40591;SDS011;26301;42.832;23.918;2023-07-29T02:10:40;3.92;;;2.90;;
40591;SDS011;26301;42.832;23.918;2023-07-29T02:13:07;5.13;;;3.05;;
40591;SDS011;26301;42.832;23.918;2023-07-29T02:15:33;4.35;;;3.00;;
40591;SDS011;26301;42.832;23.918;2023-07-29T02:17:58;4.75;;;2.97;;
40591;SDS011;26301;42.832;23.918;2023-07-29T02:20:24;3.65;;;2.88;;
40591;SDS011;26301;42.832;23.918;2023-07-29T02:22:49;3.63;;;2.90;;
40591;SDS011;26301;42.832;23.918;2023-07-29T02:25:15;3.72;;;2.83;;
40591;SDS011;26301;42.832;23.918;2023-07-29T02:27:40;3.95;;;2.80;;
40591;SDS011;26301;42.832;23.918;2023-07-29T02:30:06;3.33;;;2.58;;
40591;SDS011;26301;42.832;23.918;2023-07-29T02:32:34;3.47;;;2.83;;
40591;SDS011;26301;42.832;23.918;2023-07-29T02:35:00;4.30;;;2.50;;
40591;SDS011;26301;42.832;23.918;2023-07-29T02:37:25;2.92;;;2.47;;
40591;SDS011;26301;42.832;23.918;2023-07-29T02:39:51;3.28;;;2.80;;
40591;SDS011;26301;42.832;23.918;2023-07-29T02:42:16;3.40;;;2.65;;
40591;SDS011;26301;42.832;23.918;2023-07-29T02:44:42;3.42;;;2.65;;
40591;SDS011;26301;42.832;23.918;2023-07-29T02:47:07;4.90;;;3.25;;
40591;SDS011;26301;42.832;23.918;2023-07-29T02:49:33;3.60;;;2.70;;
40591;SDS011;26301;42.832;23.918;2023-07-29T02:51:58;3.55;;;2.90;;
40591;SDS011;26301;42.832;23.918;2023-07-29T02:54:24;3.58;;;2.97;;
40591;SDS011;26301;42.832;23.918;2023-07-29T02:56:49;3.67;;;3.08;;
40591;SDS011;26301;42.832;23.918;2023-07-29T02:59:15;6.68;;;3.20;;
40591;SDS011;26301;42.832;23.918;2023-07-29T03:01:40;6.97;;;3.17;;
40591;SDS011;26301;42.832;23.918;2023-07-29T03:04:07;4.32;;;3.60;;
40591;SDS011;26301;42.832;23.918;2023-07-29T03:06:33;4.28;;;2.70;;
40591;SDS011;26301;42.832;23.918;2023-07-29T03:08:58;3.38;;;2.88;;
40591;SDS011;26301;42.832;23.918;2023-07-29T03:11:24;4.47;;;2.85;;
40591;SDS011;26301;42.832;23.918;2023-07-29T03:13:50;3.72;;;2.95;;
40591;SDS011;26301;42.832;23.918;2023-07-29T03:16:18;3.72;;;2.80;;
40591;SDS011;26301;42.832;23.918;2023-07-29T03:18:45;5.25;;;2.60;;
40591;SDS011;26301;42.832;23.918;2023-07-29T03:21:11;3.78;;;3.03;;
40591;SDS011;26301;42.832;23.918;2023-07-29T03:23:38;3.35;;;2.50;;
40591;SDS011;26301;42.832;23.918;2023-07-29T03:26:04;4.18;;;2.85;;
40591;SDS011;26301;42.832;23.918;2023-07-29T03:28:36;3.80;;;3.05;;
40591;SDS011;26301;42.832;23.918;2023-07-29T03:31:04;5.43;;;2.83;;
40591;SDS011;26301;42.832;23.918;2023-07-29T03:33:30;4.82;;;2.88;;
40591;SDS011;26301;42.832;23.918;2023-07-29T03:35:57;3.17;;;2.72;;
40591;SDS011;26301;42.832;23.918;2023-07-29T03:38:23;4.95;;;2.50;;
40591;SDS011;26301;42.832;23.918;2023-07-29T03:40:50;3.90;;;2.88;;
40591;SDS011;26301;42.832;23.918;2023-07-29T03:43:16;5.57;;;3.03;;
40591;SDS011;26301;42.832;23.918;2023-07-29T03:45:43;3.40;;;2.72;;
40591;SDS011;26301;42.832;23.918;2023-07-29T03:48:10;4.93;;;3.20;;
40591;SDS011;26301;42.832;23.918;2023-07-29T03:50:37;3.63;;;3.17;;
40591;SDS011;26301;42.832;23.918;2023-07-29T03:53:04;4.70;;;2.65;;
40591;SDS011;26301;42.832;23.918;2023-07-29T03:55:32;3.65;;;2.70;;
40591;SDS011;26301;42.832;23.918;2023-07-29T03:57:59;3.33;;;2.70;;
40591;SDS011;26301;42.832;23.918;2023-07-29T04:00:27;3.45;;;3.00;;
40591;SDS011;26301;42.832;23.918;2023-07-29T04:02:57;4.35;;;2.63;;
40591;SDS011;26301;42.832;23.918;2023-07-29T04:05:23;4.35;;;2.95;;
40591;SDS011;26301;42.832;23.918;2023-07-29T04:07:50;3.65;;;2.80;;
40591;SDS011;26301;42.832;23.918;2023-07-29T04:10:18;4.50;;;2.50;;
40591;SDS011;26301;42.832;23.918;2023-07-29T04:12:47;3.40;;;2.60;;
40591;SDS011;26301;42.832;23.918;2023-07-29T04:15:15;3.90;;;2.80;;
40591;SDS011;26301;42.832;23.918;2023-07-29T04:17:43;3.35;;;2.88;;
40591;SDS011;26301;42.832;23.918;2023-07-29T04:20:11;3.88;;;2.80;;
40591;SDS011;26301;42.832;23.918;2023-07-29T04:22:38;5.32;;;2.67;;
40591;SDS011;26301;42.832;23.918;2023-07-29T04:25:07;3.72;;;2.70;;
40591;SDS011;26301;42.832;23.918;2023-07-29T04:27:34;3.25;;;2.53;;
40591;SDS011;26301;42.832;23.918;2023-07-29T04:30:01;3.33;;;2.40;;
40591;SDS011;26301;42.832;23.918;2023-07-29T04:32:28;4.60;;;2.80;;
40591;SDS011;26301;42.832;23.918;2023-07-29T04:34:54;6.00;;;3.08;;
40591;SDS011;26301;42.832;23.918;2023-07-29T04:37:20;10.23;;;2.50;;
40591;SDS011;26301;42.832;23.918;2023-07-29T04:39:46;3.30;;;2.40;;
40591;SDS011;26301;42.832;23.918;2023-07-29T04:42:13;4.53;;;2.60;;
40591;SDS011;26301;42.832;23.918;2023-07-29T04:44:39;3.13;;;2.38;;
40591;SDS011;26301;42.832;23.918;2023-07-29T04:47:07;2.78;;;2.10;;
40591;SDS011;26301;42.832;23.918;2023-07-29T04:49:33;2.92;;;2.17;;
40591;SDS011;26301;42.832;23.918;2023-07-29T04:52:02;4.30;;;2.45;;
40591;SDS011;26301;42.832;23.918;2023-07-29T04:54:28;4.65;;;2.28;;
40591;SDS011;26301;42.832;23.918;2023-07-29T04:56:55;3.05;;;2.35;;
40591;SDS011;26301;42.832;23.918;2023-07-29T04:59:21;3.10;;;2.45;;
40591;SDS011;26301;42.832;23.918;2023-07-29T05:01:48;5.97;;;2.05;;
40591;SDS011;26301;42.832;23.918;2023-07-29T05:04:14;7.57;;;3.03;;
40591;SDS011;26301;42.832;23.918;2023-07-29T05:06:40;19.38;;;3.58;;
40591;SDS011;26301;42.832;23.918;2023-07-29T05:09:14;9.43;;;2.30;;
40591;SDS011;26301;42.832;23.918;2023-07-29T05:11:43;6.40;;;2.30;;
40591;SDS011;26301;42.832;23.918;2023-07-29T05:14:11;3.40;;;2.20;;
40591;SDS011;26301;42.832;23.918;2023-07-29T05:16:38;4.45;;;2.22;;
40591;SDS011;26301;42.832;23.918;2023-07-29T05:19:05;4.53;;;2.40;;
40591;SDS011;26301;42.832;23.918;2023-07-29T05:21:32;2.90;;;1.90;;
40591;SDS011;26301;42.832;23.918;2023-07-29T05:23:59;7.25;;;2.20;;
40591;SDS011;26301;42.832;23.918;2023-07-29T05:26:26;3.72;;;1.90;;
40591;SDS011;26301;42.832;23.918;2023-07-29T05:28:53;3.88;;;1.95;;
40591;SDS011;26301;42.832;23.918;2023-07-29T05:31:19;2.63;;;1.90;;
40591;SDS011;26301;42.832;23.918;2023-07-29T05:33:46;2.53;;;1.92;;
40591;SDS011;26301;42.832;23.918;2023-07-29T05:36:13;3.60;;;1.67;;
40591;SDS011;26301;42.832;23.918;2023-07-29T05:38:40;2.65;;;1.80;;
40591;SDS011;26301;42.832;23.918;2023-07-29T05:41:07;4.00;;;1.90;;
40591;SDS011;26301;42.832;23.918;2023-07-29T05:43:33;3.53;;;1.88;;
40591;SDS011;26301;42.832;23.918;2023-07-29T05:45:59;2.20;;;1.77;;
40591;SDS011;26301;42.832;23.918;2023-07-29T05:48:26;2.45;;;1.70;;
40591;SDS011;26301;42.832;23.918;2023-07-29T05:50:53;10.63;;;3.53;;
40591;SDS011;26301;42.832;23.918;2023-07-29T05:53:23;4.15;;;2.22;;
40591;SDS011;26301;42.832;23.918;2023-07-29T05:55:49;3.15;;;1.80;;
40591;SDS011;26301;42.832;23.918;2023-07-29T05:58:16;2.65;;;1.80;;
40591;SDS011;26301;42.832;23.918;2023-07-29T06:00:43;5.00;;;2.25;;
40591;SDS011;26301;42.832;23.918;2023-07-29T06:03:10;4.97;;;2.20;;
40591;SDS011;26301;42.832;23.918;2023-07-29T06:05:36;4.03;;;2.10;;
40591;SDS011;26301;42.832;23.918;2023-07-29T06:08:03;8.20;;;2.17;;
40591;SDS011;26301;42.832;23.918;2023-07-29T06:10:30;4.05;;;1.85;;
40591;SDS011;26301;42.832;23.918;2023-07-29T06:12:57;2.95;;;1.85;;
40591;SDS011;26301;42.832;23.918;2023-07-29T06:15:25;2.53;;;1.92;;
40591;SDS011;26301;42.832;23.918;2023-07-29T06:17:56;3.38;;;2.13;;
40591;SDS011;26301;42.832;23.918;2023-07-29T06:20:23;2.72;;;1.98;;
40591;SDS011;26301;42.832;23.918;2023-07-29T06:22:54;4.70;;;2.22;;
40591;SDS011;26301;42.832;23.918;2023-07-29T06:25:20;5.32;;;1.98;;
40591;SDS011;26301;42.832;23.918;2023-07-29T06:27:46;3.50;;;1.80;;
40591;SDS011;26301;42.832;23.918;2023-07-29T06:30:12;7.20;;;1.73;;
40591;SDS011;26301;42.832;23.918;2023-07-29T06:32:39;2.42;;;1.75;;
40591;SDS011;26301;42.832;23.918;2023-07-29T06:35:05;2.28;;;1.80;;
40591;SDS011;26301;42.832;23.918;2023-07-29T06:37:32;2.78;;;1.60;;
40591;SDS011;26301;42.832;23.918;2023-07-29T06:39:59;5.03;;;1.60;;
40591;SDS011;26301;42.832;23.918;2023-07-29T06:42:25;3.60;;;1.75;;
40591;SDS011;26301;42.832;23.918;2023-07-29T06:44:52;3.05;;;1.60;;
40591;SDS011;26301;42.832;23.918;2023-07-29T06:47:18;3.65;;;1.80;;
40591;SDS011;26301;42.832;23.918;2023-07-29T06:49:45;2.67;;;1.63;;
40591;SDS011;26301;42.832;23.918;2023-07-29T06:52:12;5.22;;;1.92;;
40591;SDS011;26301;42.832;23.918;2023-07-29T06:54:38;2.88;;;1.75;;
40591;SDS011;26301;42.832;23.918;2023-07-29T06:57:05;1.98;;;1.60;;
40591;SDS011;26301;42.832;23.918;2023-07-29T06:59:31;4.18;;;1.90;;
40591;SDS011;26301;42.832;23.918;2023-07-29T07:01:58;7.00;;;1.88;;
40591;SDS011;26301;42.832;23.918;2023-07-29T07:04:25;2.42;;;1.52;;
40591;SDS011;26301;42.832;23.918;2023-07-29T07:06:51;1.95;;;1.40;;
40591;SDS011;26301;42.832;23.918;2023-07-29T07:09:17;3.35;;;1.67;;
40591;SDS011;26301;42.832;23.918;2023-07-29T07:11:44;3.28;;;1.63;;
40591;SDS011;26301;42.832;23.918;2023-07-29T07:14:10;5.32;;;2.20;;
40591;SDS011;26301;42.832;23.918;2023-07-29T07:16:38;3.13;;;2.15;;
40591;SDS011;26301;42.832;23.918;2023-07-29T07:19:04;3.22;;;1.75;;
40591;SDS011;26301;42.832;23.918;2023-07-29T07:21:31;2.35;;;1.90;;
40591;SDS011;26301;42.832;23.918;2023-07-29T07:23:57;2.42;;;1.70;;
40591;SDS011;26301;42.832;23.918;2023-07-29T07:26:24;2.78;;;1.67;;
40591;SDS011;26301;42.832;23.918;2023-07-29T07:28:50;2.08;;;1.63;;
40591;SDS011;26301;42.832;23.918;2023-07-29T07:31:17;2.90;;;1.75;;
40591;SDS011;26301;42.832;23.918;2023-07-29T07:33:43;2.85;;;1.95;;
40591;SDS011;26301;42.832;23.918;2023-07-29T07:36:10;2.13;;;1.60;;
40591;SDS011;26301;42.832;23.918;2023-07-29T07:38:36;2.50;;;1.67;;
40591;SDS011;26301;42.832;23.918;2023-07-29T07:41:03;2.78;;;1.80;;
40591;SDS011;26301;42.832;23.918;2023-07-29T07:43:29;3.70;;;2.17;;
40591;SDS011;26301;42.832;23.918;2023-07-29T07:45:58;3.65;;;1.90;;
40591;SDS011;26301;42.832;23.918;2023-07-29T07:48:27;4.50;;;1.95;;
40591;SDS011;26301;42.832;23.918;2023-07-29T07:50:53;4.20;;;1.70;;
40591;SDS011;26301;42.832;23.918;2023-07-29T07:53:19;5.15;;;2.05;;
40591;SDS011;26301;42.832;23.918;2023-07-29T07:55:45;2.45;;;1.60;;
40591;SDS011;26301;42.832;23.918;2023-07-29T07:58:12;3.55;;;1.70;;
40591;SDS011;26301;42.832;23.918;2023-07-29T08:00:38;3.15;;;1.70;;
40591;SDS011;26301;42.832;23.918;2023-07-29T08:03:05;3.60;;;1.60;;
40591;SDS011;26301;42.832;23.918;2023-07-29T08:05:31;2.70;;;1.58;;
40591;SDS011;26301;42.832;23.918;2023-07-29T08:07:57;2.03;;;1.50;;
40591;SDS011;26301;42.832;23.918;2023-07-29T08:10:23;2.38;;;1.80;;
40591;SDS011;26301;42.832;23.918;2023-07-29T08:12:49;2.75;;;1.70;;
40591;SDS011;26301;42.832;23.918;2023-07-29T08:15:15;2.47;;;1.55;;
40591;SDS011;26301;42.832;23.918;2023-07-29T08:17:41;3.05;;;1.40;;
40591;SDS011;26301;42.832;23.918;2023-07-29T08:20:08;3.72;;;1.40;;
40591;SDS011;26301;42.832;23.918;2023-07-29T08:22:34;3.00;;;1.38;;
40591;SDS011;26301;42.832;23.918;2023-07-29T08:25:01;4.68;;;1.50;;
40591;SDS011;26301;42.832;23.918;2023-07-29T08:27:28;3.30;;;1.30;;
40591;SDS011;26301;42.832;23.918;2023-07-29T08:29:55;2.22;;;1.40;;
40591;SDS011;26301;42.832;23.918;2023-07-29T08:32:21;2.10;;;1.40;;
40591;SDS011;26301;42.832;23.918;2023-07-29T08:34:47;2.33;;;1.33;;
40591;SDS011;26301;42.832;23.918;2023-07-29T08:37:15;2.22;;;1.40;;
40591;SDS011;26301;42.832;23.918;2023-07-29T08:39:41;1.75;;;1.45;;
40591;SDS011;26301;42.832;23.918;2023-07-29T08:42:08;5.07;;;1.40;;
40591;SDS011;26301;42.832;23.918;2023-07-29T08:44:43;2.60;;;1.50;;
40591;SDS011;26301;42.832;23.918;2023-07-29T08:47:11;4.38;;;1.50;;
40591;SDS011;26301;42.832;23.918;2023-07-29T08:49:38;2.28;;;1.40;;
40591;SDS011;26301;42.832;23.918;2023-07-29T08:52:07;4.95;;;2.20;;
40591;SDS011;26301;42.832;23.918;2023-07-29T08:54:36;2.03;;;1.73;;
40591;SDS011;26301;42.832;23.918;2023-07-29T08:57:03;2.35;;;1.77;;
40591;SDS011;26301;42.832;23.918;2023-07-29T08:59:30;2.95;;;1.80;;
40591;SDS011;26301;42.832;23.918;2023-07-29T09:01:56;2.88;;;1.40;;
40591;SDS011;26301;42.832;23.918;2023-07-29T09:04:23;3.92;;;1.50;;
40591;SDS011;26301;42.832;23.918;2023-07-29T09:06:50;2.70;;;1.70;;
40591;SDS011;26301;42.832;23.918;2023-07-29T09:09:17;1.95;;;1.50;;
40591;SDS011;26301;42.832;23.918;2023-07-29T09:11:44;3.80;;;1.45;;
40591;SDS011;26301;42.832;23.918;2023-07-29T09:14:10;1.70;;;1.30;;
40591;SDS011;26301;42.832;23.918;2023-07-29T09:16:38;2.75;;;1.60;;
40591;SDS011;26301;42.832;23.918;2023-07-29T09:19:07;2.38;;;1.65;;
40591;SDS011;26301;42.832;23.918;2023-07-29T09:21:38;1.73;;;1.38;;
40591;SDS011;26301;42.832;23.918;2023-07-29T09:24:05;2.50;;;1.27;;
40591;SDS011;26301;42.832;23.918;2023-07-29T09:26:32;2.22;;;1.60;;
40591;SDS011;26301;42.832;23.918;2023-07-29T09:28:59;2.78;;;2.03;;
40591;SDS011;26301;42.832;23.918;2023-07-29T09:31:26;2.88;;;1.40;;
40591;SDS011;26301;42.832;23.918;2023-07-29T09:33:57;2.30;;;1.35;;
40591;SDS011;26301;42.832;23.918;2023-07-29T09:36:23;2.58;;;1.30;;
40591;SDS011;26301;42.832;23.918;2023-07-29T09:38:53;4.93;;;1.63;;
40591;SDS011;26301;42.832;23.918;2023-07-29T09:41:27;2.92;;;1.95;;
40591;SDS011;26301;42.832;23.918;2023-07-29T09:43:56;1.65;;;1.20;;
40591;SDS011;26301;42.832;23.918;2023-07-29T09:46:24;6.43;;;1.52;;
40591;SDS011;26301;42.832;23.918;2023-07-29T09:48:53;2.17;;;1.45;;
40591;SDS011;26301;42.832;23.918;2023-07-29T09:51:22;2.08;;;1.15;;
40591;SDS011;26301;42.832;23.918;2023-07-29T09:53:50;1.13;;;0.95;;
40591;SDS011;26301;42.832;23.918;2023-07-29T09:56:18;1.33;;;1.10;;
40591;SDS011;26301;42.832;23.918;2023-07-29T09:58:50;1.80;;;1.30;;
40591;SDS011;26301;42.832;23.918;2023-07-29T10:01:16;2.83;;;1.25;;
40591;SDS011;26301;42.832;23.918;2023-07-29T10:03:44;2.30;;;1.52;;
40591;SDS011;26301;42.832;23.918;2023-07-29T10:06:10;2.03;;;1.30;;
40591;SDS011;26301;42.832;23.918;2023-07-29T10:08:37;1.90;;;1.30;;
40591;SDS011;26301;42.832;23.918;2023-07-29T10:11:08;2.38;;;1.20;;
40591;SDS011;26301;42.832;23.918;2023-07-29T10:13:35;1.95;;;1.10;;
40591;SDS011;26301;42.832;23.918;2023-07-29T10:16:02;2.30;;;1.30;;
40591;SDS011;26301;42.832;23.918;2023-07-29T10:18:30;2.08;;;1.27;;
40591;SDS011;26301;42.832;23.918;2023-07-29T10:20:58;4.03;;;1.48;;
40591;SDS011;26301;42.832;23.918;2023-07-29T10:23:26;4.03;;;1.17;;
40591;SDS011;26301;42.832;23.918;2023-07-29T10:25:55;2.00;;;1.10;;
40591;SDS011;26301;42.832;23.918;2023-07-29T10:28:34;3.65;;;1.10;;
40591;SDS011;26301;42.832;23.918;2023-07-29T10:31:05;1.10;;;1.00;;
40591;SDS011;26301;42.832;23.918;2023-07-29T10:33:32;1.80;;;1.00;;
40591;SDS011;26301;42.832;23.918;2023-07-29T10:35:59;1.83;;;1.00;;
40591;SDS011;26301;42.832;23.918;2023-07-29T10:38:27;1.83;;;0.90;;
40591;SDS011;26301;42.832;23.918;2023-07-29T10:40:57;1.80;;;1.25;;
40591;SDS011;26301;42.832;23.918;2023-07-29T10:45:57;3.20;;;1.63;;
40591;SDS011;26301;42.832;23.918;2023-07-29T10:48:41;2.30;;;1.20;;
40591;SDS011;26301;42.832;23.918;2023-07-29T10:53:55;5.60;;;1.00;;
40591;SDS011;26301;42.832;23.918;2023-07-29T10:56:27;1.30;;;0.95;;
40591;SDS011;26301;42.832;23.918;2023-07-29T11:01:43;1.10;;;0.98;;
40591;SDS011;26301;42.832;23.918;2023-07-29T11:17:56;2.47;;;1.00;;
40591;SDS011;26301;42.832;23.918;2023-07-29T11:20:27;3.53;;;1.17;;
40591;SDS011;26301;42.832;23.918;2023-07-29T11:22:55;1.85;;;1.30;;
40591;SDS011;26301;42.832;23.918;2023-07-29T11:25:25;1.75;;;1.00;;
40591;SDS011;26301;42.832;23.918;2023-07-29T11:27:58;3.83;;;1.70;;
40591;SDS011;26301;42.832;23.918;2023-07-29T11:30:25;2.03;;;1.10;;
40591;SDS011;26301;42.832;23.918;2023-07-29T11:32:53;1.40;;;1.02;;
40591;SDS011;26301;42.832;23.918;2023-07-29T11:35:22;1.42;;;1.13;;
40591;SDS011;26301;42.832;23.918;2023-07-29T11:37:48;1.73;;;1.10;;
40591;SDS011;26301;42.832;23.918;2023-07-29T11:42:46;1.33;;;1.13;;
40591;SDS011;26301;42.832;23.918;2023-07-29T11:45:17;2.20;;;1.30;;
40591;SDS011;26301;42.832;23.918;2023-07-29T11:47:43;1.17;;;1.05;;
40591;SDS011;26301;42.832;23.918;2023-07-29T11:50:11;1.63;;;1.13;;
40591;SDS011;26301;42.832;23.918;2023-07-29T11:52:41;1.70;;;1.00;;
40591;SDS011;26301;42.832;23.918;2023-07-29T11:55:09;1.50;;;1.02;;
40591;SDS011;26301;42.832;23.918;2023-07-29T11:57:36;5.97;;;1.13;;
40591;SDS011;26301;42.832;23.918;2023-07-29T12:00:04;1.33;;;1.10;;
40591;SDS011;26301;42.832;23.918;2023-07-29T12:02:32;2.03;;;1.27;;
40591;SDS011;26301;42.832;23.918;2023-07-29T12:05:01;1.35;;;1.02;;
40591;SDS011;26301;42.832;23.918;2023-07-29T12:07:28;1.30;;;1.00;;
40591;SDS011;26301;42.832;23.918;2023-07-29T12:09:54;2.55;;;1.02;;
40591;SDS011;26301;42.832;23.918;2023-07-29T12:12:22;2.80;;;1.02;;
40591;SDS011;26301;42.832;23.918;2023-07-29T12:14:48;3.20;;;1.10;;
40591;SDS011;26301;42.832;23.918;2023-07-29T12:17:14;1.05;;;0.90;;
40591;SDS011;26301;42.832;23.918;2023-07-29T12:19:43;1.52;;;1.00;;
40591;SDS011;26301;42.832;23.918;2023-07-29T12:22:10;1.45;;;0.80;;
40591;SDS011;26301;42.832;23.918;2023-07-29T12:24:38;1.90;;;1.10;;
40591;SDS011;26301;42.832;23.918;2023-07-29T12:27:12;1.80;;;1.00;;
40591;SDS011;26301;42.832;23.918;2023-07-29T12:29:41;1.25;;;1.00;;
40591;SDS011;26301;42.832;23.918;2023-07-29T12:32:08;0.75;;;0.75;;
40591;SDS011;26301;42.832;23.918;2023-07-29T12:34:35;1.48;;;1.00;;
40591;SDS011;26301;42.832;23.918;2023-07-29T12:37:03;1.42;;;0.80;;
40591;SDS011;26301;42.832;23.918;2023-07-29T12:39:31;1.15;;;1.00;;
40591;SDS011;26301;42.832;23.918;2023-07-29T12:41:58;1.92;;;1.00;;
40591;SDS011;26301;42.832;23.918;2023-07-29T12:44:31;1.17;;;0.88;;
40591;SDS011;26301;42.832;23.918;2023-07-29T12:47:01;1.20;;;0.80;;
40591;SDS011;26301;42.832;23.918;2023-07-29T12:49:28;1.10;;;1.00;;
40591;SDS011;26301;42.832;23.918;2023-07-29T12:51:55;1.15;;;1.00;;
40591;SDS011;26301;42.832;23.918;2023-07-29T12:54:21;3.63;;;1.20;;
40591;SDS011;26301;42.832;23.918;2023-07-29T12:56:47;1.30;;;1.10;;
40591;SDS011;26301;42.832;23.918;2023-07-29T12:59:14;2.78;;;0.90;;
40591;SDS011;26301;42.832;23.918;2023-07-29T13:01:41;1.13;;;1.00;;
40591;SDS011;26301;42.832;23.918;2023-07-29T13:04:07;1.92;;;0.80;;
40591;SDS011;26301;42.832;23.918;2023-07-29T13:06:33;1.20;;;1.00;;
40591;SDS011;26301;42.832;23.918;2023-07-29T13:08:58;1.58;;;0.98;;
40591;SDS011;26301;42.832;23.918;2023-07-29T13:11:27;1.33;;;1.15;;
40591;SDS011;26301;42.832;23.918;2023-07-29T13:13:53;0.80;;;0.80;;
40591;SDS011;26301;42.832;23.918;2023-07-29T13:16:19;1.40;;;0.88;;
40591;SDS011;26301;42.832;23.918;2023-07-29T13:18:45;1.42;;;1.00;;
40591;SDS011;26301;42.832;23.918;2023-07-29T13:21:12;1.33;;;0.90;;
40591;SDS011;26301;42.832;23.918;2023-07-29T13:23:39;2.55;;;0.80;;
40591;SDS011;26301;42.832;23.918;2023-07-29T13:26:05;3.25;;;1.15;;
40591;SDS011;26301;42.832;23.918;2023-07-29T13:28:31;1.65;;;1.00;;
40591;SDS011;26301;42.832;23.918;2023-07-29T13:30:58;1.73;;;1.20;;
40591;SDS011;26301;42.832;23.918;2023-07-29T13:33:24;2.35;;;0.88;;
40591;SDS011;26301;42.832;23.918;2023-07-29T13:35:50;2.15;;;1.02;;
40591;SDS011;26301;42.832;23.918;2023-07-29T13:38:16;1.00;;;0.90;;
40591;SDS011;26301;42.832;23.918;2023-07-29T13:40:48;2.22;;;1.10;;
40591;SDS011;26301;42.832;23.918;2023-07-29T13:43:25;4.80;;;1.38;;
40591;SDS011;26301;42.832;23.918;2023-07-29T13:46:12;0.98;;;0.88;;
40591;SDS011;26301;42.832;23.918;2023-07-29T13:48:38;1.30;;;1.13;;
40591;SDS011;26301;42.832;23.918;2023-07-29T13:51:04;2.45;;;0.98;;
40591;SDS011;26301;42.832;23.918;2023-07-29T13:53:31;1.52;;;0.90;;
40591;SDS011;26301;42.832;23.918;2023-07-29T13:55:57;1.23;;;0.90;;
40591;SDS011;26301;42.832;23.918;2023-07-29T13:58:24;1.08;;;0.90;;
40591;SDS011;26301;42.832;23.918;2023-07-29T14:00:51;3.65;;;1.20;;
40591;SDS011;26301;42.832;23.918;2023-07-29T14:03:17;1.23;;;0.77;;
40591;SDS011;26301;42.832;23.918;2023-07-29T14:05:43;4.60;;;1.05;;
40591;SDS011;26301;42.832;23.918;2023-07-29T14:08:09;5.07;;;1.20;;
40591;SDS011;26301;42.832;23.918;2023-07-29T14:10:35;1.08;;;0.98;;
40591;SDS011;26301;42.832;23.918;2023-07-29T14:13:03;3.22;;;1.10;;
40591;SDS011;26301;42.832;23.918;2023-07-29T14:15:29;2.95;;;1.30;;
40591;SDS011;26301;42.832;23.918;2023-07-29T14:17:57;4.32;;;1.10;;
40591;SDS011;26301;42.832;23.918;2023-07-29T14:20:23;1.50;;;1.20;;
40591;SDS011;26301;42.832;23.918;2023-07-29T14:22:49;1.52;;;1.02;;
40591;SDS011;26301;42.832;23.918;2023-07-29T14:25:15;2.08;;;1.20;;
40591;SDS011;26301;42.832;23.918;2023-07-29T14:27:41;2.00;;;1.42;;
40591;SDS011;26301;42.832;23.918;2023-07-29T14:30:07;1.88;;;1.10;;
40591;SDS011;26301;42.832;23.918;2023-07-29T14:32:33;2.47;;;1.30;;
40591;SDS011;26301;42.832;23.918;2023-07-29T14:35:00;5.00;;;1.30;;
40591;SDS011;26301;42.832;23.918;2023-07-29T14:37:30;1.15;;;1.00;;
40591;SDS011;26301;42.832;23.918;2023-07-29T14:39:57;1.67;;;1.27;;
40591;SDS011;26301;42.832;23.918;2023-07-29T14:42:24;1.45;;;1.10;;
40591;SDS011;26301;42.832;23.918;2023-07-29T14:44:50;2.65;;;1.20;;
40591;SDS011;26301;42.832;23.918;2023-07-29T14:47:16;1.35;;;1.17;;
40591;SDS011;26301;42.832;23.918;2023-07-29T14:49:43;3.60;;;1.17;;
40591;SDS011;26301;42.832;23.918;2023-07-29T14:52:10;1.15;;;0.98;;
40591;SDS011;26301;42.832;23.918;2023-07-29T14:54:36;1.70;;;1.15;;
40591;SDS011;26301;42.832;23.918;2023-07-29T14:57:04;2.17;;;1.00;;
40591;SDS011;26301;42.832;23.918;2023-07-29T14:59:32;1.75;;;1.15;;
40591;SDS011;26301;42.832;23.918;2023-07-29T15:01:58;4.03;;;1.60;;
40591;SDS011;26301;42.832;23.918;2023-07-29T15:04:24;1.85;;;1.30;;
40591;SDS011;26301;42.832;23.918;2023-07-29T15:06:50;1.48;;;1.15;;